createdAt,value
2018-05-02T00:00:30.783Z,0.00
2018-05-02T00:01:30.967Z,0.00
2018-05-02T00:02:31.156Z,0.00
2018-05-02T00:03:31.334Z,0.00
2018-05-02T00:04:31.516Z,0.00
2018-05-02T00:05:31.699Z,0.00
2018-05-02T00:06:31.880Z,0.00
2018-05-02T00:07:32.064Z,0.00
2018-05-02T00:08:32.247Z,0.00
2018-05-02T00:09:32.430Z,0.00
2018-05-02T00:10:32.614Z,0.00
2018-05-02T00:11:32.797Z,0.00
2018-05-02T00:12:32.981Z,0.00
2018-05-02T00:13:33.163Z,0.00
2018-05-02T00:14:33.346Z,0.00
2018-05-02T00:15:33.529Z,0.00
2018-05-02T00:16:33.712Z,0.00
2018-05-02T00:17:33.894Z,0.00
2018-05-02T00:18:34.077Z,0.00
2018-05-02T00:19:34.259Z,0.00
2018-05-02T00:20:34.442Z,0.00
2018-05-02T00:21:34.625Z,0.00
2018-05-02T00:22:34.809Z,0.00
2018-05-02T00:23:34.993Z,0.00
2018-05-02T00:24:35.173Z,0.00
2018-05-02T00:25:35.356Z,0.00
2018-05-02T00:26:35.539Z,0.00
2018-05-02T00:27:35.723Z,0.00
2018-05-02T00:28:35.938Z,0.00
2018-05-02T00:29:36.086Z,0.00
2018-05-02T00:30:36.271Z,0.00
2018-05-02T00:31:36.455Z,0.00
2018-05-02T00:32:36.636Z,0.00
2018-05-02T00:33:36.819Z,0.00
2018-05-02T00:34:37.003Z,0.00
2018-05-02T00:35:37.186Z,0.00
2018-05-02T00:36:37.370Z,0.00
2018-05-02T00:37:37.551Z,0.00
2018-05-02T00:38:37.735Z,0.00
2018-05-02T00:39:37.956Z,0.00
2018-05-02T00:40:38.099Z,0.00
2018-05-02T00:41:38.282Z,0.00
2018-05-02T00:42:38.465Z,0.00
2018-05-02T00:43:38.650Z,0.00
2018-05-02T00:44:38.832Z,0.00
2018-05-02T00:45:39.013Z,0.00
2018-05-02T00:46:39.203Z,0.00
2018-05-02T00:47:39.380Z,0.00
2018-05-02T00:48:39.565Z,0.00
2018-05-02T00:49:39.745Z,0.00
2018-05-02T00:50:39.928Z,0.00
2018-05-02T00:51:40.109Z,0.00
2018-05-02T00:52:40.292Z,0.00
2018-05-02T00:53:40.472Z,0.00
2018-05-02T00:54:40.656Z,0.00
2018-05-02T00:55:40.837Z,0.00
2018-05-02T00:56:41.019Z,0.00
2018-05-02T00:57:41.201Z,0.00
2018-05-02T00:58:41.385Z,0.00
2018-05-02T00:59:41.568Z,0.00
2018-05-02T01:00:41.752Z,0.00
2018-05-02T01:01:41.932Z,0.00
2018-05-02T01:02:42.115Z,0.00
2018-05-02T01:03:42.298Z,0.00
2018-05-02T01:04:42.480Z,0.00
2018-05-02T01:05:42.663Z,84.00
2018-05-02T01:06:42.846Z,8.00
2018-05-02T01:07:43.030Z,8.00
2018-05-02T01:08:43.209Z,8.00
2018-05-02T01:09:43.392Z,8.00
2018-05-02T01:10:43.572Z,8.00
2018-05-02T01:11:58.702Z,8.00
2018-05-02T01:12:43.993Z,8.00
2018-05-02T01:13:44.176Z,8.00
2018-05-02T01:14:44.360Z,0.00
2018-05-02T01:15:44.543Z,0.00
2018-05-02T01:16:44.729Z,0.00
2018-05-02T01:17:44.912Z,0.00
2018-05-02T01:18:45.093Z,0.00
2018-05-02T01:19:45.277Z,0.00
2018-05-02T01:20:45.459Z,0.00
2018-05-02T01:21:45.642Z,0.00
2018-05-02T01:22:45.825Z,0.00
2018-05-02T01:23:46.009Z,88.00
2018-05-02T01:24:46.199Z,8.00
2018-05-02T01:25:46.374Z,8.00
2018-05-02T01:26:46.556Z,8.00
2018-05-02T01:27:46.738Z,8.00
2018-05-02T01:28:46.921Z,8.00
2018-05-02T01:29:47.104Z,8.00
2018-05-02T01:30:47.287Z,8.00
2018-05-02T01:31:47.469Z,8.00
2018-05-02T01:32:47.652Z,0.00
2018-05-02T01:33:47.834Z,0.00
2018-05-02T01:34:48.023Z,0.00
2018-05-02T01:35:48.199Z,0.00
2018-05-02T01:36:48.382Z,0.00
2018-05-02T01:37:48.566Z,0.00
2018-05-02T01:38:48.753Z,0.00
2018-05-02T01:39:48.930Z,0.00
2018-05-02T01:40:49.113Z,0.00
2018-05-02T01:41:49.298Z,0.00
2018-05-02T01:42:49.476Z,0.00
2018-05-02T01:43:49.661Z,0.00
2018-05-02T01:44:49.848Z,0.00
2018-05-02T01:45:50.030Z,0.00
2018-05-02T01:46:50.214Z,88.00
2018-05-02T01:47:50.397Z,8.00
2018-05-02T01:48:50.578Z,8.00
2018-05-02T01:49:50.761Z,8.00
2018-05-02T01:50:50.945Z,8.00
2018-05-02T01:51:51.130Z,8.00
2018-05-02T01:52:51.309Z,8.00
2018-05-02T01:53:51.494Z,8.00
2018-05-02T01:54:51.677Z,8.00
2018-05-02T01:55:51.860Z,0.00
2018-05-02T01:56:52.045Z,0.00
2018-05-02T01:57:52.227Z,0.00
2018-05-02T01:58:52.407Z,0.00
2018-05-02T01:59:52.591Z,0.00
2018-05-02T02:00:52.773Z,0.00
2018-05-02T02:01:52.955Z,0.00
2018-05-02T02:02:53.138Z,0.00
2018-05-02T02:03:53.321Z,0.00
2018-05-02T02:04:53.504Z,0.00
2018-05-02T02:05:53.685Z,0.00
2018-05-02T02:06:53.869Z,0.00
2018-05-02T02:07:54.051Z,0.00
2018-05-02T02:08:54.233Z,0.00
2018-05-02T02:09:54.414Z,0.00
2018-05-02T02:10:54.595Z,0.00
2018-05-02T02:11:54.777Z,0.00
2018-05-02T02:12:54.959Z,0.00
2018-05-02T02:13:55.145Z,0.00
2018-05-02T02:14:55.328Z,0.00
2018-05-02T02:15:55.519Z,88.00
2018-05-02T02:16:55.694Z,8.00
2018-05-02T02:17:55.877Z,8.00
2018-05-02T02:18:56.061Z,8.00
2018-05-02T02:19:56.241Z,8.00
2018-05-02T02:20:56.422Z,8.00
2018-05-02T02:21:56.604Z,8.00
2018-05-02T02:22:56.788Z,8.00
2018-05-02T02:23:56.971Z,8.00
2018-05-02T02:24:57.152Z,0.00
2018-05-02T02:25:57.334Z,0.00
2018-05-02T02:26:57.516Z,0.00
2018-05-02T02:27:57.702Z,0.00
2018-05-02T02:28:57.946Z,0.00
2018-05-02T02:29:58.065Z,0.00
2018-05-02T02:30:58.247Z,0.00
2018-05-02T02:31:58.432Z,0.00
2018-05-02T02:32:58.614Z,0.00
2018-05-02T02:33:58.869Z,0.00
2018-05-02T02:34:58.982Z,0.00
2018-05-02T02:35:59.160Z,0.00
2018-05-02T02:36:59.345Z,0.00
2018-05-02T02:37:59.530Z,0.00
2018-05-02T02:38:59.712Z,0.00
2018-05-02T02:39:59.892Z,0.00
2018-05-02T02:41:00.076Z,0.00
2018-05-02T02:42:00.255Z,0.00
2018-05-02T02:43:00.439Z,0.00
2018-05-02T02:44:00.621Z,0.00
2018-05-02T02:45:00.805Z,0.00
2018-05-02T02:46:00.987Z,0.00
2018-05-02T02:47:01.168Z,0.00
2018-05-02T02:48:01.351Z,0.00
2018-05-02T02:49:01.535Z,0.00
2018-05-02T02:50:01.716Z,0.00
2018-05-02T02:51:01.900Z,0.00
2018-05-02T02:52:02.082Z,0.00
2018-05-02T02:53:02.262Z,0.00
2018-05-02T02:54:02.444Z,0.00
2018-05-02T02:55:02.627Z,0.00
2018-05-02T02:56:02.810Z,0.00
2018-05-02T02:57:02.992Z,0.00
2018-05-02T02:58:03.176Z,0.00
2018-05-02T02:59:03.357Z,0.00
2018-05-02T03:00:03.542Z,0.00
2018-05-02T03:01:03.721Z,0.00
2018-05-02T03:02:03.909Z,0.00
2018-05-02T03:03:04.085Z,0.00
2018-05-02T03:04:04.267Z,0.00
2018-05-02T03:05:04.451Z,0.00
2018-05-02T03:06:04.634Z,0.00
2018-05-02T03:07:04.813Z,0.00
2018-05-02T03:08:05.331Z,0.00
2018-05-02T03:09:05.312Z,0.00
2018-05-02T03:10:05.368Z,0.00
2018-05-02T03:11:05.550Z,4.00
2018-05-02T03:12:05.733Z,4.00
2018-05-02T03:13:05.915Z,4.00
2018-05-02T03:14:06.097Z,0.00
2018-05-02T03:15:06.279Z,0.00
2018-05-02T03:16:06.458Z,4.00
2018-05-02T03:17:06.643Z,4.00
2018-05-02T03:18:06.828Z,4.00
2018-05-02T03:19:07.007Z,4.00
2018-05-02T03:20:07.189Z,96.00
2018-05-02T03:21:07.371Z,16.00
2018-05-02T03:22:07.553Z,16.00
2018-05-02T03:23:07.737Z,20.00
2018-05-02T03:24:07.920Z,20.00
2018-05-02T03:25:08.103Z,16.00
2018-05-02T03:26:08.282Z,20.00
2018-05-02T03:27:08.504Z,28.00
2018-05-02T03:28:08.648Z,28.00
2018-05-02T03:29:08.830Z,24.00
2018-05-02T03:30:09.015Z,28.00
2018-05-02T03:31:09.192Z,32.00
2018-05-02T03:32:09.374Z,36.00
2018-05-02T03:33:09.562Z,40.00
2018-05-02T03:34:09.739Z,48.00
2018-05-02T03:35:09.928Z,56.00
2018-05-02T03:36:10.104Z,64.00
2018-05-02T03:37:10.288Z,72.00
2018-05-02T03:38:10.469Z,84.00
2018-05-02T03:39:10.652Z,100.00
2018-05-02T03:40:10.835Z,108.00
2018-05-02T03:41:11.020Z,124.00
2018-05-02T03:42:11.201Z,140.00
2018-05-02T03:43:11.384Z,160.00
2018-05-02T03:44:11.567Z,180.00
2018-05-02T03:45:11.750Z,200.00
2018-05-02T03:46:11.932Z,224.00
2018-05-02T03:47:12.116Z,248.00
2018-05-02T03:48:12.298Z,272.00
2018-05-02T03:49:12.484Z,296.00
2018-05-02T03:50:12.664Z,328.00
2018-05-02T03:51:12.845Z,356.00
2018-05-02T03:52:13.025Z,392.00
2018-05-02T03:53:13.208Z,428.00
2018-05-02T03:54:13.389Z,468.00
2018-05-02T03:55:13.571Z,516.00
2018-05-02T03:56:13.754Z,564.00
2018-05-02T03:57:13.938Z,616.00
2018-05-02T03:58:14.117Z,676.00
2018-05-02T03:59:14.301Z,744.00
2018-05-02T04:00:14.482Z,812.00
2018-05-02T04:01:14.664Z,884.00
2018-05-02T04:02:14.845Z,968.00
2018-05-02T04:03:15.027Z,1064.00
2018-05-02T04:04:15.208Z,1172.00
2018-05-02T04:05:15.393Z,1320.00
2018-05-02T04:06:15.572Z,1552.00
2018-05-02T04:07:15.756Z,1848.00
2018-05-02T04:08:15.941Z,2028.00
2018-05-02T04:09:16.120Z,2124.00
2018-05-02T04:10:16.307Z,2164.00
2018-05-02T04:11:16.489Z,2276.00
2018-05-02T04:12:16.672Z,2488.00
2018-05-02T04:13:16.853Z,2732.00
2018-05-02T04:14:17.038Z,3200.00
2018-05-02T04:15:17.220Z,3684.00
2018-05-02T04:16:17.404Z,4648.00
2018-05-02T04:17:17.591Z,4940.00
2018-05-02T04:18:17.771Z,4776.00
2018-05-02T04:19:17.962Z,5048.00
2018-05-02T04:20:18.139Z,5332.00
2018-05-02T04:21:18.321Z,6504.00
2018-05-02T04:22:18.506Z,6536.00
2018-05-02T04:23:18.689Z,5956.00
2018-05-02T04:24:18.872Z,6520.00
2018-05-02T04:25:19.057Z,8572.00
2018-05-02T04:26:19.240Z,10900.00
2018-05-02T04:27:19.423Z,12064.00
2018-05-02T04:28:19.608Z,13152.00
2018-05-02T04:29:19.791Z,14176.00
2018-05-02T04:30:19.976Z,12672.00
2018-05-02T04:31:20.166Z,12256.00
2018-05-02T04:32:20.345Z,13664.00
2018-05-02T04:33:20.526Z,15584.00
2018-05-02T04:34:20.711Z,18336.00
2018-05-02T04:35:20.896Z,20160.00
2018-05-02T04:36:21.080Z,20832.00
2018-05-02T04:37:21.267Z,19584.00
2018-05-02T04:38:21.452Z,16832.00
2018-05-02T04:39:21.648Z,21248.00
2018-05-02T04:40:21.825Z,24480.00
2018-05-02T04:41:22.011Z,24320.00
2018-05-02T04:42:22.198Z,21696.00
2018-05-02T04:43:22.383Z,23168.00
2018-05-02T04:44:22.570Z,24096.00
2018-05-02T04:45:22.757Z,26816.00
2018-05-02T04:46:22.947Z,20608.00
2018-05-02T04:47:23.128Z,17760.00
2018-05-02T04:48:23.316Z,13072.00
2018-05-02T04:49:23.511Z,13180.00
2018-05-02T04:50:23.690Z,10688.00
2018-05-02T04:51:23.876Z,9576.00
2018-05-02T04:52:24.068Z,9104.00
2018-05-02T04:53:24.252Z,8736.00
2018-05-02T04:54:24.443Z,8508.00
2018-05-02T04:55:24.701Z,8428.00
2018-05-02T04:56:24.804Z,8120.00
2018-05-02T04:57:24.990Z,8024.00
2018-05-02T04:58:25.176Z,8292.00
2018-05-02T04:59:25.381Z,8600.00
2018-05-02T05:00:25.553Z,8972.00
2018-05-02T05:01:25.740Z,9540.00
2018-05-02T05:02:25.925Z,9692.00
2018-05-02T05:03:26.111Z,10052.00
2018-05-02T05:04:26.299Z,9872.00
2018-05-02T05:05:26.484Z,10144.00
2018-05-02T05:06:26.674Z,10740.00
2018-05-02T05:07:26.859Z,12224.00
2018-05-02T05:08:27.048Z,13944.00
2018-05-02T05:09:27.234Z,11388.00
2018-05-02T05:10:27.422Z,11724.00
2018-05-02T05:11:27.606Z,9892.00
2018-05-02T05:12:27.792Z,9548.00
2018-05-02T05:13:27.981Z,8816.00
2018-05-02T05:14:28.165Z,8588.00
2018-05-02T05:15:28.354Z,8800.00
2018-05-02T05:16:28.540Z,9036.00
2018-05-02T05:17:28.726Z,9368.00
2018-05-02T05:18:28.912Z,9952.00
2018-05-02T05:19:29.099Z,10040.00
2018-05-02T05:20:29.285Z,10344.00
2018-05-02T05:21:29.474Z,10804.00
2018-05-02T05:22:29.656Z,11112.00
2018-05-02T05:23:29.844Z,11400.00
2018-05-02T05:24:30.031Z,11576.00
2018-05-02T05:25:30.218Z,11744.00
2018-05-02T05:26:30.403Z,11888.00
2018-05-02T05:27:30.589Z,12180.00
2018-05-02T05:28:30.774Z,12476.00
2018-05-02T05:29:30.961Z,12816.00
2018-05-02T05:30:31.146Z,13004.00
2018-05-02T05:31:31.334Z,13484.00
2018-05-02T05:32:31.520Z,13652.00
2018-05-02T05:33:31.714Z,13508.00
2018-05-02T05:34:31.893Z,13408.00
2018-05-02T05:35:32.080Z,13776.00
2018-05-02T05:36:32.266Z,14444.00
2018-05-02T05:37:32.451Z,15316.00
2018-05-02T05:38:32.641Z,15268.00
2018-05-02T05:39:32.824Z,16224.00
2018-05-02T05:40:33.010Z,16928.00
2018-05-02T05:41:33.197Z,18016.00
2018-05-02T05:42:33.383Z,18176.00
2018-05-02T05:43:33.628Z,19168.00
2018-05-02T05:44:33.755Z,19552.00
2018-05-02T05:45:33.942Z,18656.00
2018-05-02T05:46:34.127Z,18496.00
2018-05-02T05:47:34.315Z,18464.00
2018-05-02T05:48:34.505Z,18464.00
2018-05-02T05:49:34.697Z,20448.00
2018-05-02T05:50:34.874Z,20224.00
2018-05-02T05:51:35.062Z,30848.00
2018-05-02T05:52:35.248Z,18912.00
2018-05-02T05:53:35.431Z,29856.00
2018-05-02T05:54:35.667Z,22272.00
2018-05-02T05:55:35.808Z,25152.00
2018-05-02T05:56:35.995Z,20352.00
2018-05-02T05:57:36.222Z,18528.00
2018-05-02T05:58:36.369Z,19392.00
2018-05-02T05:59:36.555Z,20288.00
2018-05-02T06:00:36.743Z,25632.00
2018-05-02T06:01:36.933Z,21568.00
2018-05-02T06:02:37.122Z,22496.00
2018-05-02T06:03:37.308Z,23840.00
2018-05-02T06:04:37.496Z,24800.00
2018-05-02T06:05:37.684Z,30560.00
2018-05-02T06:06:37.915Z,28672.00
2018-05-02T06:07:38.062Z,45568.00
2018-05-02T06:08:38.249Z,57152.00
2018-05-02T06:09:38.435Z,57184.00
2018-05-02T06:10:38.621Z,73664.00
2018-05-02T06:11:38.815Z,51360.00
2018-05-02T06:12:39.013Z,81280.00
2018-05-02T06:13:39.227Z,55136.00
2018-05-02T06:14:39.379Z,42016.00
2018-05-02T06:15:39.571Z,34336.00
2018-05-02T06:16:39.761Z,38400.00
2018-05-02T06:17:39.951Z,32064.00
2018-05-02T06:18:40.139Z,32384.00
2018-05-02T06:19:40.328Z,31200.00
2018-05-02T06:20:40.515Z,31968.00
2018-05-02T06:21:40.705Z,34144.00
2018-05-02T06:22:40.894Z,37728.00
2018-05-02T06:23:41.084Z,36192.00
2018-05-02T06:24:41.274Z,38976.00
2018-05-02T06:25:41.466Z,40256.00
2018-05-02T06:26:41.654Z,40608.00
2018-05-02T06:27:41.846Z,40160.00
2018-05-02T06:28:42.035Z,42624.00
2018-05-02T06:29:42.224Z,40480.00
2018-05-02T06:30:42.413Z,40736.00
2018-05-02T06:31:42.627Z,38048.00
2018-05-02T06:32:42.794Z,39520.00
2018-05-02T06:33:42.986Z,40352.00
2018-05-02T06:34:43.177Z,40768.00
2018-05-02T06:35:43.367Z,56224.00
2018-05-02T06:36:43.555Z,45632.00
2018-05-02T06:37:43.870Z,51584.00
2018-05-02T06:38:43.938Z,42784.00
2018-05-02T06:39:44.136Z,43712.00
2018-05-02T06:40:44.319Z,47520.00
2018-05-02T06:41:44.514Z,38272.00
2018-05-02T06:42:44.704Z,42624.00
2018-05-02T06:43:44.891Z,38848.00
2018-05-02T06:44:45.081Z,40672.00
2018-05-02T06:45:45.272Z,38592.00
2018-05-02T06:46:45.464Z,49600.00
2018-05-02T06:47:45.655Z,49216.00
2018-05-02T06:48:45.846Z,52992.00
2018-05-02T06:49:46.037Z,67936.00
2018-05-02T06:50:46.229Z,44160.00
2018-05-02T06:51:46.436Z,46912.00
2018-05-02T06:52:46.613Z,43680.00
2018-05-02T06:53:46.806Z,44224.00
2018-05-02T06:54:47.079Z,45024.00
2018-05-02T06:55:47.189Z,43648.00
2018-05-02T06:56:47.381Z,38656.00
2018-05-02T06:57:47.576Z,54592.00
2018-05-02T06:58:47.765Z,39072.00
2018-05-02T06:59:47.959Z,39488.00
2018-05-02T07:00:48.243Z,42304.00
2018-05-02T07:01:48.344Z,41280.00
2018-05-02T07:02:48.532Z,39648.00
2018-05-02T07:03:48.726Z,40672.00
2018-05-02T07:04:48.917Z,40768.00
2018-05-02T07:05:49.110Z,39616.00
2018-05-02T07:06:49.302Z,40768.00
2018-05-02T07:07:49.492Z,41280.00
2018-05-02T07:08:49.686Z,42080.00
2018-05-02T07:09:49.877Z,46176.00
2018-05-02T07:10:50.074Z,42336.00
2018-05-02T07:11:50.261Z,42048.00
2018-05-02T07:12:50.458Z,43072.00
2018-05-02T07:13:50.646Z,44320.00
2018-05-02T07:14:50.838Z,47488.00
2018-05-02T07:15:51.030Z,45792.00
2018-05-02T07:16:51.223Z,44192.00
2018-05-02T07:17:51.414Z,47168.00
2018-05-02T07:18:51.603Z,42944.00
2018-05-02T07:19:51.799Z,45280.00
2018-05-02T07:20:51.992Z,46112.00
2018-05-02T07:21:52.180Z,62912.00
2018-05-02T07:22:52.374Z,81504.00
2018-05-02T07:23:52.570Z,101696.00
2018-05-02T07:24:52.763Z,104832.00
2018-05-02T07:25:52.948Z,72544.00
2018-05-02T07:26:53.143Z,89088.00
2018-05-02T07:27:53.336Z,107584.00
2018-05-02T07:28:53.529Z,74368.00
2018-05-02T07:29:53.725Z,96160.00
2018-05-02T07:30:53.918Z,56288.00
2018-05-02T07:31:54.112Z,48000.00
2018-05-02T07:32:54.415Z,55456.00
2018-05-02T07:33:54.498Z,54496.00
2018-05-02T07:34:54.692Z,59072.00
2018-05-02T07:35:54.884Z,51264.00
2018-05-02T07:36:55.079Z,61760.00
2018-05-02T07:37:55.274Z,59904.00
2018-05-02T07:38:55.468Z,66880.00
2018-05-02T07:39:55.661Z,77216.00
2018-05-02T07:40:55.855Z,73920.00
2018-05-02T07:41:56.049Z,61696.00
2018-05-02T07:42:56.243Z,52704.00
2018-05-02T07:43:56.436Z,58656.00
2018-05-02T07:44:56.630Z,61952.00
2018-05-02T07:45:56.824Z,69376.00
2018-05-02T07:46:57.018Z,49440.00
2018-05-02T07:47:57.213Z,50368.00
2018-05-02T07:48:57.476Z,60512.00
2018-05-02T07:49:57.599Z,68736.00
2018-05-02T07:50:57.799Z,45472.00
2018-05-02T07:51:57.991Z,37632.00
2018-05-02T07:52:58.184Z,45248.00
2018-05-02T07:53:58.377Z,43872.00
2018-05-02T07:54:58.574Z,65664.00
2018-05-02T07:55:58.782Z,55360.00
2018-05-02T07:56:58.963Z,71840.00
2018-05-02T07:57:59.180Z,47456.00
2018-05-02T07:58:59.350Z,51680.00
2018-05-02T07:59:59.545Z,65472.00
2018-05-02T08:00:59.740Z,65728.00
2018-05-02T08:01:59.933Z,55104.00
2018-05-02T08:03:00.130Z,53728.00
2018-05-02T08:04:00.321Z,88128.00
2018-05-02T08:05:00.516Z,55264.00
2018-05-02T08:06:00.713Z,71680.00
2018-05-02T08:07:00.907Z,71616.00
2018-05-02T08:08:01.103Z,60544.00
2018-05-02T08:09:01.296Z,57056.00
2018-05-02T08:10:01.499Z,48256.00
2018-05-02T08:11:01.732Z,74336.00
2018-05-02T08:12:01.882Z,59072.00
2018-05-02T08:13:02.077Z,51264.00
2018-05-02T08:14:02.271Z,53248.00
2018-05-02T08:15:02.466Z,39840.00
2018-05-02T08:16:02.663Z,37344.00
2018-05-02T08:17:02.858Z,37888.00
2018-05-02T08:18:03.161Z,31648.00
2018-05-02T08:19:03.231Z,32736.00
2018-05-02T08:20:03.425Z,37760.00
2018-05-02T08:21:03.620Z,35232.00
2018-05-02T08:22:03.829Z,45312.00
2018-05-02T08:23:04.011Z,42368.00
2018-05-02T08:24:04.204Z,37152.00
2018-05-02T08:25:04.399Z,37504.00
2018-05-02T08:26:04.592Z,38176.00
2018-05-02T08:27:04.788Z,40864.00
2018-05-02T08:28:04.982Z,43584.00
2018-05-02T08:29:05.173Z,58176.00
2018-05-02T08:30:05.368Z,76000.00
2018-05-02T08:31:05.567Z,54208.00
2018-05-02T08:32:05.760Z,51424.00
2018-05-02T08:33:05.953Z,43680.00
2018-05-02T08:34:06.148Z,45888.00
2018-05-02T08:35:06.343Z,49280.00
2018-05-02T08:36:06.535Z,41344.00
2018-05-02T08:37:06.727Z,42816.00
2018-05-02T08:38:06.923Z,37568.00
2018-05-02T08:39:07.117Z,38592.00
2018-05-02T08:40:07.317Z,36032.00
2018-05-02T08:41:07.508Z,39584.00
2018-05-02T08:42:07.703Z,45056.00
2018-05-02T08:43:07.894Z,51168.00
2018-05-02T08:44:08.086Z,44480.00
2018-05-02T08:45:08.278Z,48320.00
2018-05-02T08:46:08.474Z,51328.00
2018-05-02T08:47:08.666Z,49696.00
2018-05-02T08:48:08.863Z,65632.00
2018-05-02T08:49:09.052Z,49312.00
2018-05-02T08:50:09.249Z,40352.00
2018-05-02T08:51:09.443Z,51232.00
2018-05-02T08:52:09.642Z,64928.00
2018-05-02T08:53:09.830Z,67520.00
2018-05-02T08:54:10.025Z,81248.00
2018-05-02T08:55:10.216Z,46048.00
2018-05-02T08:56:10.410Z,47680.00
2018-05-02T08:57:10.605Z,50336.00
2018-05-02T08:58:10.798Z,47936.00
2018-05-02T08:59:10.994Z,47072.00
2018-05-02T09:00:11.185Z,53568.00
2018-05-02T09:01:11.378Z,56576.00
2018-05-02T09:02:11.571Z,76480.00
2018-05-02T09:03:11.764Z,67936.00
2018-05-02T09:04:11.957Z,44160.00
2018-05-02T09:05:12.151Z,41472.00
2018-05-02T09:06:12.343Z,49184.00
2018-05-02T09:07:12.537Z,52736.00
2018-05-02T09:08:12.732Z,73344.00
2018-05-02T09:09:12.934Z,44832.00
2018-05-02T09:10:13.121Z,76256.00
2018-05-02T09:11:13.317Z,61504.00
2018-05-02T09:12:13.506Z,48256.00
2018-05-02T09:13:13.701Z,43424.00
2018-05-02T09:14:13.895Z,49152.00
2018-05-02T09:15:14.090Z,59744.00
2018-05-02T09:16:14.285Z,47424.00
2018-05-02T09:17:14.481Z,45760.00
2018-05-02T09:18:14.674Z,45504.00
2018-05-02T09:19:14.868Z,40960.00
2018-05-02T09:20:15.064Z,35136.00
2018-05-02T09:21:15.257Z,45408.00
2018-05-02T09:22:15.452Z,44096.00
2018-05-02T09:23:15.653Z,45888.00
2018-05-02T09:24:15.840Z,38016.00
2018-05-02T09:25:16.036Z,42464.00
2018-05-02T09:26:16.229Z,43328.00
2018-05-02T09:27:16.424Z,34208.00
2018-05-02T09:28:16.618Z,34784.00
2018-05-02T09:29:16.812Z,36992.00
2018-05-02T09:30:17.006Z,35520.00
2018-05-02T09:31:17.202Z,32192.00
2018-05-02T09:32:17.398Z,29184.00
2018-05-02T09:33:17.593Z,29312.00
2018-05-02T09:34:17.783Z,27840.00
2018-05-02T09:35:17.981Z,28288.00
2018-05-02T09:36:18.171Z,26976.00
2018-05-02T09:37:18.365Z,25984.00
2018-05-02T09:38:18.558Z,26048.00
2018-05-02T09:39:18.751Z,25024.00
2018-05-02T09:40:18.944Z,25024.00
2018-05-02T09:41:19.137Z,25472.00
2018-05-02T09:42:19.335Z,26784.00
2018-05-02T09:43:19.527Z,30976.00
2018-05-02T09:44:19.720Z,32512.00
2018-05-02T09:45:19.917Z,28896.00
2018-05-02T09:46:20.110Z,27584.00
2018-05-02T09:47:20.305Z,26976.00
2018-05-02T09:48:20.497Z,26816.00
2018-05-02T09:49:20.694Z,25664.00
2018-05-02T09:50:20.884Z,24896.00
2018-05-02T09:51:21.078Z,24576.00
2018-05-02T09:52:21.275Z,24928.00
2018-05-02T09:53:21.467Z,24640.00
2018-05-02T09:54:21.661Z,25408.00
2018-05-02T09:55:21.859Z,25952.00
2018-05-02T09:56:22.049Z,26784.00
2018-05-02T09:57:22.240Z,28032.00
2018-05-02T09:58:22.435Z,28768.00
2018-05-02T09:59:22.634Z,27904.00
2018-05-02T10:00:22.823Z,27424.00
2018-05-02T10:01:23.019Z,27168.00
2018-05-02T10:02:23.207Z,26912.00
2018-05-02T10:03:23.403Z,26112.00
2018-05-02T10:04:23.598Z,25408.00
2018-05-02T10:05:23.792Z,25088.00
2018-05-02T10:06:23.988Z,25184.00
2018-05-02T10:07:24.183Z,25408.00
2018-05-02T10:08:24.373Z,25600.00
2018-05-02T10:09:24.569Z,25952.00
2018-05-02T10:10:24.796Z,26336.00
2018-05-02T10:11:24.954Z,26464.00
2018-05-02T10:12:25.165Z,26304.00
2018-05-02T10:13:25.340Z,25792.00
2018-05-02T10:14:25.532Z,25088.00
2018-05-02T10:15:25.726Z,24352.00
2018-05-02T10:16:25.920Z,23680.00
2018-05-02T10:17:26.115Z,23104.00
2018-05-02T10:18:26.349Z,22944.00
2018-05-02T10:19:26.500Z,23328.00
2018-05-02T10:20:26.693Z,23968.00
2018-05-02T10:21:26.887Z,24544.00
2018-05-02T10:22:27.082Z,24288.00
2018-05-02T10:23:27.277Z,23808.00
2018-05-02T10:24:27.469Z,23776.00
2018-05-02T10:25:27.665Z,23776.00
2018-05-02T10:26:27.857Z,23904.00
2018-05-02T10:27:28.053Z,24448.00
2018-05-02T10:28:28.243Z,25248.00
2018-05-02T10:29:28.439Z,25792.00
2018-05-02T10:30:28.631Z,25728.00
2018-05-02T10:31:28.826Z,25824.00
2018-05-02T10:32:29.020Z,25824.00
2018-05-02T10:33:29.217Z,25504.00
2018-05-02T10:34:29.414Z,23968.00
2018-05-02T10:35:29.601Z,22496.00
2018-05-02T10:36:29.796Z,21984.00
2018-05-02T10:37:29.988Z,21568.00
2018-05-02T10:38:30.185Z,21536.00
2018-05-02T10:39:30.379Z,21792.00
2018-05-02T10:40:30.576Z,22176.00
2018-05-02T10:41:30.766Z,22656.00
2018-05-02T10:42:30.965Z,23904.00
2018-05-02T10:43:31.155Z,26336.00
2018-05-02T10:44:31.347Z,28576.00
2018-05-02T10:45:31.542Z,29248.00
2018-05-02T10:46:31.734Z,36320.00
2018-05-02T10:47:31.927Z,29440.00
2018-05-02T10:48:32.121Z,30720.00
2018-05-02T10:49:32.314Z,29024.00
2018-05-02T10:50:32.545Z,24384.00
2018-05-02T10:51:32.700Z,23840.00
2018-05-02T10:52:32.892Z,22816.00
2018-05-02T10:53:33.086Z,23040.00
2018-05-02T10:54:33.279Z,22720.00
2018-05-02T10:55:33.475Z,23072.00
2018-05-02T10:56:33.669Z,22816.00
2018-05-02T10:57:33.863Z,23136.00
2018-05-02T10:58:34.057Z,23136.00
2018-05-02T10:59:34.256Z,23168.00
2018-05-02T11:00:34.443Z,23168.00
2018-05-02T11:01:34.637Z,23072.00
2018-05-02T11:02:34.831Z,23200.00
2018-05-02T11:03:35.024Z,22848.00
2018-05-02T11:04:35.219Z,22560.00
2018-05-02T11:05:35.411Z,22208.00
2018-05-02T11:06:35.604Z,21952.00
2018-05-02T11:07:35.795Z,21760.00
2018-05-02T11:08:35.990Z,21664.00
2018-05-02T11:09:36.183Z,21600.00
2018-05-02T11:10:36.376Z,21664.00
2018-05-02T11:11:36.574Z,21696.00
2018-05-02T11:12:36.768Z,21568.00
2018-05-02T11:13:36.958Z,21600.00
2018-05-02T11:14:37.151Z,21600.00
2018-05-02T11:15:37.343Z,21696.00
2018-05-02T11:16:37.535Z,21792.00
2018-05-02T11:17:37.728Z,21952.00
2018-05-02T11:18:37.920Z,21952.00
2018-05-02T11:19:38.113Z,21984.00
2018-05-02T11:20:38.307Z,21984.00
2018-05-02T11:21:38.499Z,21600.00
2018-05-02T11:22:38.693Z,21024.00
2018-05-02T11:23:38.886Z,20512.00
2018-05-02T11:24:39.077Z,20032.00
2018-05-02T11:25:39.269Z,19872.00
2018-05-02T11:26:39.463Z,19776.00
2018-05-02T11:27:39.652Z,19968.00
2018-05-02T11:28:39.845Z,19968.00
2018-05-02T11:29:40.039Z,20032.00
2018-05-02T11:30:40.231Z,20128.00
2018-05-02T11:31:40.428Z,20096.00
2018-05-02T11:32:40.615Z,20320.00
2018-05-02T11:33:40.807Z,20416.00
2018-05-02T11:34:41.010Z,20416.00
2018-05-02T11:35:41.190Z,20512.00
2018-05-02T11:36:41.383Z,20608.00
2018-05-02T11:37:41.581Z,20768.00
2018-05-02T11:38:41.768Z,21056.00
2018-05-02T11:39:41.961Z,21120.00
2018-05-02T11:40:42.249Z,20960.00
2018-05-02T11:41:42.346Z,20800.00
2018-05-02T11:42:42.536Z,20672.00
2018-05-02T11:43:42.728Z,20640.00
2018-05-02T11:44:42.922Z,20512.00
2018-05-02T11:45:43.113Z,20448.00
2018-05-02T11:46:43.305Z,20352.00
2018-05-02T11:47:43.498Z,20320.00
2018-05-02T11:48:43.691Z,20288.00
2018-05-02T11:49:43.883Z,20320.00
2018-05-02T11:50:44.075Z,20384.00
2018-05-02T11:51:44.266Z,20384.00
2018-05-02T11:52:44.459Z,20480.00
2018-05-02T11:53:44.651Z,20544.00
2018-05-02T11:54:44.842Z,20608.00
2018-05-02T11:55:45.039Z,20640.00
2018-05-02T11:56:45.232Z,20672.00
2018-05-02T11:57:45.489Z,20736.00
2018-05-02T11:58:45.613Z,20704.00
2018-05-02T11:59:45.809Z,20832.00
2018-05-02T12:00:45.998Z,20832.00
2018-05-02T12:01:46.192Z,20896.00
2018-05-02T12:02:46.384Z,20960.00
2018-05-02T12:03:46.576Z,20960.00
2018-05-02T12:04:46.770Z,20992.00
2018-05-02T12:05:46.962Z,21024.00
2018-05-02T12:06:47.153Z,21120.00
2018-05-02T12:07:47.347Z,21248.00
2018-05-02T12:08:47.538Z,21440.00
2018-05-02T12:09:47.730Z,21504.00
2018-05-02T12:10:47.923Z,21536.00
2018-05-02T12:11:48.113Z,21568.00
2018-05-02T12:12:48.305Z,21728.00
2018-05-02T12:13:48.498Z,21696.00
2018-05-02T12:14:48.691Z,21760.00